createdAt,value
2023-03-24T00:04:34.523Z,15.65
2023-03-24T00:09:38.004Z,15.56
2023-03-24T00:14:54.508Z,15.49
2023-03-24T00:20:07.998Z,15.50
2023-03-24T00:25:23.815Z,15.56
2023-03-24T00:30:36.044Z,15.62
2023-03-24T00:35:45.739Z,15.69
2023-03-24T00:40:56.242Z,15.70
2023-03-24T00:46:02.062Z,15.73
2023-03-24T00:51:27.090Z,15.71
2023-03-24T00:56:35.900Z,15.64
2023-03-24T01:01:42.045Z,15.50
2023-03-24T01:06:45.057Z,15.36
2023-03-24T01:11:48.205Z,15.31
2023-03-24T01:16:53.072Z,15.27
2023-03-24T01:22:02.358Z,15.25
2023-03-24T01:27:04.974Z,15.26
2023-03-24T01:32:12.811Z,15.25
2023-03-24T01:37:23.413Z,15.26
2023-03-24T01:42:36.310Z,15.25
2023-03-24T01:47:50.533Z,15.27
2023-03-24T01:52:56.053Z,15.27
2023-03-24T01:58:03.547Z,15.28
2023-03-24T02:03:26.455Z,15.30
2023-03-24T02:08:42.624Z,15.32
2023-03-24T02:13:45.956Z,15.35
2023-03-24T02:19:25.032Z,15.35
2023-03-24T02:25:12.044Z,15.30
2023-03-24T02:31:43.505Z,15.27
2023-03-24T02:37:36.539Z,15.25
2023-03-24T02:43:45.719Z,15.23
2023-03-24T02:49:29.634Z,15.19
2023-03-24T02:54:56.257Z,15.20
2023-03-24T03:00:30.834Z,15.20
2023-03-24T03:05:42.487Z,15.16
2023-03-24T03:10:50.507Z,15.11
2023-03-24T03:16:00.624Z,15.05
2023-03-24T03:21:13.237Z,14.99
2023-03-24T03:26:27.420Z,14.92
2023-03-24T03:31:44.846Z,14.88
2023-03-24T03:36:57.851Z,14.85
2023-03-24T03:42:01.815Z,14.80
2023-03-24T03:47:16.320Z,14.75
2023-03-24T03:52:24.496Z,14.69
2023-03-24T03:57:29.967Z,14.63
2023-03-24T04:03:30.451Z,14.54
2023-03-24T04:09:23.779Z,14.40
2023-03-24T04:15:17.904Z,14.26
2023-03-24T04:21:33.871Z,14.07
2023-03-24T04:27:10.288Z,13.86
2023-03-24T04:32:43.732Z,13.66
2023-03-24T04:37:50.386Z,13.49
2023-03-24T04:43:06.314Z,13.35
2023-03-24T04:48:18.883Z,13.27
2023-03-24T04:54:17.068Z,13.18
2023-03-24T04:59:26.073Z,13.05
2023-03-24T05:04:40.142Z,13.00
2023-03-24T05:10:14.609Z,12.95
2023-03-24T05:15:27.531Z,12.89
2023-03-24T05:20:51.919Z,12.85
2023-03-24T05:25:58.807Z,12.81
2023-03-24T05:31:04.437Z,12.78
2023-03-24T05:36:44.816Z,12.80
2023-03-24T05:41:49.432Z,12.80
2023-03-24T05:46:54.287Z,12.83
2023-03-24T05:52:05.990Z,12.82
2023-03-24T05:57:25.984Z,12.79
2023-03-24T06:03:15.273Z,12.82
2023-03-24T06:08:54.624Z,12.85
2023-03-24T06:14:05.044Z,12.91
2023-03-24T06:19:52.894Z,12.94
2023-03-24T06:26:02.148Z,13.00
2023-03-24T06:31:14.951Z,13.01
2023-03-24T06:36:27.241Z,13.04
2023-03-24T06:41:35.941Z,13.11
2023-03-24T06:46:50.701Z,13.18
2023-03-24T06:51:56.103Z,13.27
2023-03-24T06:57:03.531Z,13.47
2023-03-24T07:02:28.316Z,13.68
2023-03-24T07:13:33.537Z,14.07
2023-03-24T07:18:43.936Z,14.24
2023-03-24T07:23:50.217Z,14.46
2023-03-24T07:28:57.299Z,14.73
2023-03-24T07:34:12.308Z,14.98
2023-03-24T07:39:15.408Z,15.23
2023-03-24T07:44:27.799Z,15.47
2023-03-24T07:49:36.292Z,15.69
2023-03-24T07:54:49.248Z,15.97
2023-03-24T08:00:18.206Z,16.23
2023-03-24T08:05:30.784Z,16.41
2023-03-24T08:10:59.883Z,16.66
2023-03-24T08:16:22.433Z,17.05
2023-03-24T08:21:27.577Z,17.33
2023-03-24T08:26:31.167Z,17.68
2023-03-24T08:31:39.570Z,17.80
2023-03-24T08:36:44.460Z,18.07
2023-03-24T08:41:50.546Z,18.31
2023-03-24T08:47:08.558Z,18.41
2023-03-24T08:52:28.722Z,18.58
2023-03-24T08:57:31.830Z,18.67
2023-03-24T09:02:47.087Z,18.83
2023-03-24T09:08:03.317Z,18.92
2023-03-24T09:13:36.185Z,19.11
2023-03-24T09:19:23.421Z,19.46
2023-03-24T09:24:55.460Z,19.80
2023-03-24T09:30:09.983Z,19.93
2023-03-24T09:35:17.872Z,19.90
2023-03-24T09:40:28.138Z,19.85
2023-03-24T09:45:57.085Z,19.58
2023-03-24T09:51:20.826Z,19.34
2023-03-24T09:56:37.564Z,19.47
2023-03-24T10:01:54.253Z,19.71
2023-03-24T10:08:00.094Z,19.54
2023-03-24T10:13:20.396Z,19.46
2023-03-24T10:18:39.512Z,19.60
2023-03-24T10:24:34.953Z,19.79
2023-03-24T10:29:59.106Z,19.74
2023-03-24T10:35:37.709Z,19.70
2023-03-24T10:40:45.297Z,19.91
2023-03-24T10:46:08.599Z,19.98
2023-03-24T10:51:19.523Z,19.93
2023-03-24T10:57:06.773Z,19.74
2023-03-24T11:02:38.212Z,19.58
2023-03-24T11:07:47.246Z,19.69
2023-03-24T11:12:53.445Z,20.11
2023-03-24T11:18:12.504Z,20.48
2023-03-24T11:23:46.283Z,20.66
2023-03-24T11:29:30.450Z,20.67
2023-03-24T11:35:01.004Z,20.63
2023-03-24T11:40:59.604Z,20.53
2023-03-24T11:46:26.812Z,20.45
2023-03-24T11:51:36.243Z,20.40
2023-03-24T11:57:00.814Z,20.42
2023-03-24T12:02:19.426Z,20.43
2023-03-24T12:07:46.687Z,20.30
2023-03-24T12:13:19.041Z,20.22
2023-03-24T12:19:00.357Z,20.12
2023-03-24T12:24:30.880Z,20.03
2023-03-24T12:30:02.676Z,20.00
2023-03-24T12:35:39.708Z,19.94
2023-03-24T12:41:02.316Z,19.94
2023-03-24T12:46:52.540Z,20.04
2023-03-24T12:52:32.217Z,20.10
2023-03-24T12:57:46.052Z,20.03
2023-03-24T13:02:56.522Z,19.96
2023-03-24T13:08:13.700Z,19.89
2023-03-24T13:13:35.346Z,19.80
2023-03-24T13:18:48.331Z,19.73
2023-03-24T13:24:14.297Z,19.66
2023-03-24T13:29:49.063Z,19.56
2023-03-24T13:35:20.835Z,19.48
2023-03-24T13:40:29.779Z,19.38
2023-03-24T13:45:57.137Z,19.26
2023-03-24T13:51:23.124Z,19.12
2023-03-24T13:56:33.686Z,19.03
2023-03-24T14:01:43.335Z,18.93
2023-03-24T14:06:50.632Z,18.88
2023-03-24T14:12:37.439Z,18.90
2023-03-24T14:18:39.654Z,18.96
2023-03-24T14:24:18.655Z,18.95
2023-03-24T14:29:40.277Z,18.91
2023-03-24T14:34:58.084Z,18.86
2023-03-24T14:40:09.373Z,18.78
2023-03-24T14:45:52.148Z,18.68
2023-03-24T14:50:59.169Z,18.64
2023-03-24T14:56:02.223Z,18.66
2023-03-24T15:01:19.105Z,18.62
2023-03-24T15:06:26.590Z,18.52
2023-03-24T15:11:35.294Z,18.39
2023-03-24T15:16:38.639Z,18.26
2023-03-24T15:21:49.948Z,18.16
2023-03-24T15:27:07.286Z,18.08
2023-03-24T15:32:24.250Z,17.99
2023-03-24T15:37:41.294Z,17.89
2023-03-24T15:42:49.089Z,17.82
2023-03-24T15:47:55.853Z,17.71
2023-03-24T15:53:16.716Z,17.59
2023-03-24T15:58:28.364Z,17.34
2023-03-24T16:03:35.218Z,17.03
2023-03-24T16:08:42.309Z,16.78
2023-03-24T16:13:45.925Z,16.58
2023-03-24T16:18:51.708Z,16.43
2023-03-24T16:24:00.610Z,16.29
2023-03-24T16:29:38.519Z,16.22
2023-03-24T16:34:58.663Z,16.44
2023-03-24T16:40:23.091Z,16.41
2023-03-24T16:45:25.803Z,16.23
2023-03-24T16:50:38.166Z,16.12
2023-03-24T16:56:00.304Z,16.01
2023-03-24T17:01:26.527Z,15.88
2023-03-24T17:06:33.149Z,15.70
2023-03-24T17:12:05.229Z,15.52
2023-03-24T17:17:14.538Z,15.34
2023-03-24T17:22:21.068Z,15.26
2023-03-24T17:27:24.761Z,15.20
2023-03-24T17:32:32.257Z,15.11
2023-03-24T17:37:46.272Z,15.08
2023-03-24T17:42:50.387Z,15.12
2023-03-24T17:48:01.354Z,15.12
2023-03-24T17:53:07.463Z,15.15
2023-03-24T17:58:10.668Z,15.17
2023-03-24T18:03:18.261Z,15.18
2023-03-24T18:08:26.458Z,15.12
2023-03-24T18:13:38.686Z,15.06
2023-03-24T18:18:45.850Z,15.02
2023-03-24T18:23:57.152Z,15.01
2023-03-24T18:29:07.585Z,14.96
2023-03-24T18:34:12.444Z,14.91
2023-03-24T18:39:26.398Z,14.83
2023-03-24T18:44:32.129Z,14.80
2023-03-24T18:49:35.353Z,14.75
2023-03-24T18:54:43.447Z,14.67
2023-03-24T19:00:00.436Z,14.65
2023-03-24T19:05:10.021Z,14.67
2023-03-24T19:10:17.845Z,14.66
2023-03-24T19:15:20.585Z,14.66
2023-03-24T19:20:23.371Z,14.66
2023-03-24T19:25:26.567Z,14.63
2023-03-24T19:30:29.587Z,14.59
2023-03-24T19:35:32.611Z,14.57
2023-03-24T19:40:35.163Z,14.48
2023-03-24T19:45:43.473Z,14.43
2023-03-24T19:50:49.817Z,14.38
2023-03-24T19:55:58.394Z,14.35
2023-03-24T20:01:06.649Z,14.31
2023-03-24T20:06:09.752Z,14.27
2023-03-24T20:11:13.387Z,14.19
2023-03-24T20:16:18.294Z,14.10
2023-03-24T20:21:23.487Z,14.03
2023-03-24T20:26:39.497Z,13.99
2023-03-24T20:31:43.874Z,13.92
2023-03-24T20:36:46.984Z,13.84
2023-03-24T20:41:49.847Z,13.81
2023-03-24T20:46:57.549Z,13.85
2023-03-24T20:52:01.228Z,13.88
2023-03-24T20:57:06.319Z,13.94
2023-03-24T21:02:11.344Z,14.02
2023-03-24T21:07:14.858Z,14.09
2023-03-24T21:12:17.207Z,14.14
2023-03-24T21:17:36.403Z,14.20
2023-03-24T21:22:55.593Z,14.21
2023-03-24T21:27:58.659Z,14.24
2023-03-24T21:33:05.086Z,14.25
2023-03-24T21:38:16.782Z,14.28
2023-03-24T21:43:19.685Z,14.32
2023-03-24T21:48:26.711Z,14.29
2023-03-24T21:53:42.903Z,14.29
2023-03-24T21:58:46.718Z,14.21
2023-03-24T22:03:50.965Z,14.17
2023-03-24T22:09:06.572Z,14.12
2023-03-24T22:14:13.314Z,14.05
2023-03-24T22:19:16.310Z,14.04
2023-03-24T22:24:19.943Z,14.13
2023-03-24T22:29:29.263Z,14.15
2023-03-24T22:34:34.689Z,14.16
2023-03-24T22:39:45.173Z,14.15
2023-03-24T22:44:51.289Z,14.10
2023-03-24T22:49:57.148Z,14.14
2023-03-24T22:55:01.949Z,14.11
2023-03-24T23:00:06.826Z,14.16
2023-03-24T23:05:18.134Z,14.18
2023-03-24T23:10:21.004Z,14.16
2023-03-24T23:15:26.366Z,14.12
2023-03-24T23:20:29.946Z,14.03
2023-03-24T23:25:32.794Z,13.98
2023-03-24T23:30:36.208Z,13.92
2023-03-24T23:35:38.983Z,13.86
2023-03-24T23:40:42.092Z,13.81
2023-03-24T23:45:46.674Z,13.75
2023-03-24T23:51:17.253Z,13.67
2023-03-24T23:56:21.805Z,13.47
